sensor_id;sensor_type;location;lat;lon;timestamp;temperature;humidity
2721;DHT22;1368;49.484;11.112;2024-01-16T00:01:19;0.50;99.90
2721;DHT22;1368;49.484;11.112;2024-01-16T00:03:45;0.50;99.90
2721;DHT22;1368;49.484;11.112;2024-01-16T00:06:11;0.80;99.90
2721;DHT22;1368;49.484;11.112;2024-01-16T00:08:36;0.80;99.90
2721;DHT22;1368;49.484;11.112;2024-01-16T00:11:02;0.90;99.90
2721;DHT22;1368;49.484;11.112;2024-01-16T00:13:29;0.80;99.90
2721;DHT22;1368;49.484;11.112;2024-01-16T00:15:55;0.80;99.90
2721;DHT22;1368;49.484;11.112;2024-01-16T00:18:22;0.80;99.90
2721;DHT22;1368;49.484;11.112;2024-01-16T00:20:47;0.70;99.90
2721;DHT22;1368;49.484;11.112;2024-01-16T00:23:13;0.60;99.90
2721;DHT22;1368;49.484;11.112;2024-01-16T00:25:38;0.80;99.90
2721;DHT22;1368;49.484;11.112;2024-01-16T00:28:04;0.90;99.90
2721;DHT22;1368;49.484;11.112;2024-01-16T00:30:30;0.90;99.90
2721;DHT22;1368;49.484;11.112;2024-01-16T00:32:56;0.90;99.90
2721;DHT22;1368;49.484;11.112;2024-01-16T00:35:21;0.70;99.90
2721;DHT22;1368;49.484;11.112;2024-01-16T00:37:47;0.50;99.90
2721;DHT22;1368;49.484;11.112;2024-01-16T00:40:12;0.60;99.90
2721;DHT22;1368;49.484;11.112;2024-01-16T00:42:38;0.70;99.90
2721;DHT22;1368;49.484;11.112;2024-01-16T00:45:04;0.70;99.90
2721;DHT22;1368;49.484;11.112;2024-01-16T00:47:30;0.80;99.90
2721;DHT22;1368;49.484;11.112;2024-01-16T00:49:55;0.70;99.90
2721;DHT22;1368;49.484;11.112;2024-01-16T00:52:21;0.80;99.90
2721;DHT22;1368;49.484;11.112;2024-01-16T00:54:46;0.70;99.90
2721;DHT22;1368;49.484;11.112;2024-01-16T00:57:13;0.90;99.90
2721;DHT22;1368;49.484;11.112;2024-01-16T00:59:40;0.70;99.90
2721;DHT22;1368;49.484;11.112;2024-01-16T01:02:06;0.60;99.90
2721;DHT22;1368;49.484;11.112;2024-01-16T01:04:33;0.60;99.90
2721;DHT22;1368;49.484;11.112;2024-01-16T01:06:59;0.70;99.90
2721;DHT22;1368;49.484;11.112;2024-01-16T01:09:24;0.70;99.90
2721;DHT22;1368;49.484;11.112;2024-01-16T01:11:50;0.50;99.90
2721;DHT22;1368;49.484;11.112;2024-01-16T01:14:16;0.50;99.90
2721;DHT22;1368;49.484;11.112;2024-01-16T01:16:41;0.40;99.90
2721;DHT22;1368;49.484;11.112;2024-01-16T01:19:07;0.50;99.90
2721;DHT22;1368;49.484;11.112;2024-01-16T01:21:32;0.50;99.90
2721;DHT22;1368;49.484;11.112;2024-01-16T01:23:58;0.60;99.90
2721;DHT22;1368;49.484;11.112;2024-01-16T01:26:23;0.70;99.90
2721;DHT22;1368;49.484;11.112;2024-01-16T01:28:49;0.50;99.90
2721;DHT22;1368;49.484;11.112;2024-01-16T01:31:14;0.40;99.90
2721;DHT22;1368;49.484;11.112;2024-01-16T01:33:40;0.50;99.90
2721;DHT22;1368;49.484;11.112;2024-01-16T01:36:06;0.40;99.90
2721;DHT22;1368;49.484;11.112;2024-01-16T01:38:31;0.50;99.90
2721;DHT22;1368;49.484;11.112;2024-01-16T01:40:57;0.50;99.90
2721;DHT22;1368;49.484;11.112;2024-01-16T01:43:24;0.50;99.90
2721;DHT22;1368;49.484;11.112;2024-01-16T01:48:41;0.40;99.90
2721;DHT22;1368;49.484;11.112;2024-01-16T01:51:07;0.40;99.90
2721;DHT22;1368;49.484;11.112;2024-01-16T01:53:34;0.60;99.90
2721;DHT22;1368;49.484;11.112;2024-01-16T01:56:03;0.50;99.90
2721;DHT22;1368;49.484;11.112;2024-01-16T01:58:29;0.50;99.90
2721;DHT22;1368;49.484;11.112;2024-01-16T02:00:55;0.50;99.90
2721;DHT22;1368;49.484;11.112;2024-01-16T02:03:21;0.40;99.90
2721;DHT22;1368;49.484;11.112;2024-01-16T02:05:49;0.60;99.90
2721;DHT22;1368;49.484;11.112;2024-01-16T02:08:15;0.40;99.90
2721;DHT22;1368;49.484;11.112;2024-01-16T02:10:42;0.50;99.90
2721;DHT22;1368;49.484;11.112;2024-01-16T02:13:11;0.60;99.90
2721;DHT22;1368;49.484;11.112;2024-01-16T02:15:36;0.70;99.90
2721;DHT22;1368;49.484;11.112;2024-01-16T02:18:04;0.60;99.90
2721;DHT22;1368;49.484;11.112;2024-01-16T02:20:31;0.60;99.90
2721;DHT22;1368;49.484;11.112;2024-01-16T02:23:00;0.60;99.90
2721;DHT22;1368;49.484;11.112;2024-01-16T02:25:27;0.90;99.90
2721;DHT22;1368;49.484;11.112;2024-01-16T02:27:52;0.70;99.90
2721;DHT22;1368;49.484;11.112;2024-01-16T02:30:18;0.70;99.90
2721;DHT22;1368;49.484;11.112;2024-01-16T02:32:43;0.70;99.90
2721;DHT22;1368;49.484;11.112;2024-01-16T02:35:09;0.60;99.90
2721;DHT22;1368;49.484;11.112;2024-01-16T02:37:35;0.40;99.90
2721;DHT22;1368;49.484;11.112;2024-01-16T02:40:01;0.50;99.90
2721;DHT22;1368;49.484;11.112;2024-01-16T02:42:32;0.60;99.90
2721;DHT22;1368;49.484;11.112;2024-01-16T02:44:58;0.90;99.90
2721;DHT22;1368;49.484;11.112;2024-01-16T02:47:23;1.00;99.90
2721;DHT22;1368;49.484;11.112;2024-01-16T02:49:49;0.90;99.90
2721;DHT22;1368;49.484;11.112;2024-01-16T02:52:14;0.80;99.90
2721;DHT22;1368;49.484;11.112;2024-01-16T02:54:40;0.70;99.90
2721;DHT22;1368;49.484;11.112;2024-01-16T02:57:06;0.60;99.90
2721;DHT22;1368;49.484;11.112;2024-01-16T02:59:31;0.50;99.90
2721;DHT22;1368;49.484;11.112;2024-01-16T03:01:57;0.60;99.90
2721;DHT22;1368;49.484;11.112;2024-01-16T03:04:23;0.60;99.90
2721;DHT22;1368;49.484;11.112;2024-01-16T03:06:48;0.60;99.90
2721;DHT22;1368;49.484;11.112;2024-01-16T03:09:14;0.60;99.90
2721;DHT22;1368;49.484;11.112;2024-01-16T03:11:39;0.50;99.90
2721;DHT22;1368;49.484;11.112;2024-01-16T03:14:05;0.60;99.90
2721;DHT22;1368;49.484;11.112;2024-01-16T03:16:31;0.80;99.90
2721;DHT22;1368;49.484;11.112;2024-01-16T03:18:57;0.70;99.90
2721;DHT22;1368;49.484;11.112;2024-01-16T03:21:23;0.80;99.90
2721;DHT22;1368;49.484;11.112;2024-01-16T03:23:48;0.70;99.90
2721;DHT22;1368;49.484;11.112;2024-01-16T03:26:14;0.70;99.90
2721;DHT22;1368;49.484;11.112;2024-01-16T03:28:40;0.70;99.90
2721;DHT22;1368;49.484;11.112;2024-01-16T03:31:06;0.80;99.90
2721;DHT22;1368;49.484;11.112;2024-01-16T03:33:32;1.00;99.90
2721;DHT22;1368;49.484;11.112;2024-01-16T03:35:59;0.80;99.90
2721;DHT22;1368;49.484;11.112;2024-01-16T03:38:25;0.50;99.90
2721;DHT22;1368;49.484;11.112;2024-01-16T03:40:50;0.60;99.90
2721;DHT22;1368;49.484;11.112;2024-01-16T03:43:17;0.50;99.90
2721;DHT22;1368;49.484;11.112;2024-01-16T03:45:42;0.40;99.90
2721;DHT22;1368;49.484;11.112;2024-01-16T03:48:09;0.60;99.90
2721;DHT22;1368;49.484;11.112;2024-01-16T03:50:34;0.60;99.90
2721;DHT22;1368;49.484;11.112;2024-01-16T03:53:02;0.60;99.90
2721;DHT22;1368;49.484;11.112;2024-01-16T03:55:29;0.60;99.90
2721;DHT22;1368;49.484;11.112;2024-01-16T03:57:55;0.70;99.90
2721;DHT22;1368;49.484;11.112;2024-01-16T04:00:20;0.80;99.90
2721;DHT22;1368;49.484;11.112;2024-01-16T04:02:46;0.70;99.90
2721;DHT22;1368;49.484;11.112;2024-01-16T04:05:12;0.80;99.90
2721;DHT22;1368;49.484;11.112;2024-01-16T04:07:37;0.70;99.90
2721;DHT22;1368;49.484;11.112;2024-01-16T04:10:03;0.80;99.90
2721;DHT22;1368;49.484;11.112;2024-01-16T04:12:30;0.50;99.90
2721;DHT22;1368;49.484;11.112;2024-01-16T04:14:56;0.40;99.90
2721;DHT22;1368;49.484;11.112;2024-01-16T04:17:21;0.40;99.90
2721;DHT22;1368;49.484;11.112;2024-01-16T04:19:47;0.30;99.90
2721;DHT22;1368;49.484;11.112;2024-01-16T04:22:12;0.30;99.90
2721;DHT22;1368;49.484;11.112;2024-01-16T04:24:38;0.30;99.90
2721;DHT22;1368;49.484;11.112;2024-01-16T04:27:03;0.30;99.90
2721;DHT22;1368;49.484;11.112;2024-01-16T04:29:29;0.30;99.90
2721;DHT22;1368;49.484;11.112;2024-01-16T04:31:56;0.10;99.90
2721;DHT22;1368;49.484;11.112;2024-01-16T04:34:21;0.10;99.90
2721;DHT22;1368;49.484;11.112;2024-01-16T04:36:48;0.00;99.90
2721;DHT22;1368;49.484;11.112;2024-01-16T04:39:13;0.10;99.90
2721;DHT22;1368;49.484;11.112;2024-01-16T04:41:39;0.10;99.90
2721;DHT22;1368;49.484;11.112;2024-01-16T04:44:04;0.20;99.90
2721;DHT22;1368;49.484;11.112;2024-01-16T04:46:30;0.20;99.90
2721;DHT22;1368;49.484;11.112;2024-01-16T04:48:55;0.20;99.90
2721;DHT22;1368;49.484;11.112;2024-01-16T04:51:21;0.20;99.90
2721;DHT22;1368;49.484;11.112;2024-01-16T04:53:46;0.00;99.90
2721;DHT22;1368;49.484;11.112;2024-01-16T04:56:12;-0.10;99.90
2721;DHT22;1368;49.484;11.112;2024-01-16T04:58:38;0.00;99.90
2721;DHT22;1368;49.484;11.112;2024-01-16T05:01:03;0.20;99.90
2721;DHT22;1368;49.484;11.112;2024-01-16T05:03:29;0.40;99.90
2721;DHT22;1368;49.484;11.112;2024-01-16T05:05:54;0.40;99.90
2721;DHT22;1368;49.484;11.112;2024-01-16T05:08:22;0.50;99.90
2721;DHT22;1368;49.484;11.112;2024-01-16T05:10:47;0.60;99.90
2721;DHT22;1368;49.484;11.112;2024-01-16T05:13:13;0.60;99.90
2721;DHT22;1368;49.484;11.112;2024-01-16T05:15:40;0.60;99.90
2721;DHT22;1368;49.484;11.112;2024-01-16T05:18:06;0.70;99.90
2721;DHT22;1368;49.484;11.112;2024-01-16T05:20:31;0.60;99.90
2721;DHT22;1368;49.484;11.112;2024-01-16T05:22:57;0.60;99.90
2721;DHT22;1368;49.484;11.112;2024-01-16T05:25:22;0.70;99.90
2721;DHT22;1368;49.484;11.112;2024-01-16T05:27:48;0.60;99.90
2721;DHT22;1368;49.484;11.112;2024-01-16T05:30:15;0.60;99.90
2721;DHT22;1368;49.484;11.112;2024-01-16T05:32:41;0.50;99.90
2721;DHT22;1368;49.484;11.112;2024-01-16T05:35:07;0.40;99.90
2721;DHT22;1368;49.484;11.112;2024-01-16T05:37:32;0.40;99.90
2721;DHT22;1368;49.484;11.112;2024-01-16T05:39:58;0.50;99.90
2721;DHT22;1368;49.484;11.112;2024-01-16T05:42:24;0.70;99.90
2721;DHT22;1368;49.484;11.112;2024-01-16T05:44:50;0.80;99.90
2721;DHT22;1368;49.484;11.112;2024-01-16T05:47:15;0.70;99.90
2721;DHT22;1368;49.484;11.112;2024-01-16T05:49:41;0.80;99.90
2721;DHT22;1368;49.484;11.112;2024-01-16T05:52:08;0.70;99.90
2721;DHT22;1368;49.484;11.112;2024-01-16T05:54:33;0.80;99.90
2721;DHT22;1368;49.484;11.112;2024-01-16T05:56:59;0.90;99.90
2721;DHT22;1368;49.484;11.112;2024-01-16T05:59:24;1.10;99.90
2721;DHT22;1368;49.484;11.112;2024-01-16T06:01:50;1.20;99.90
2721;DHT22;1368;49.484;11.112;2024-01-16T06:04:16;1.20;99.90
2721;DHT22;1368;49.484;11.112;2024-01-16T06:06:42;1.30;99.90
2721;DHT22;1368;49.484;11.112;2024-01-16T06:09:13;1.30;99.90
2721;DHT22;1368;49.484;11.112;2024-01-16T06:11:40;1.20;99.90
2721;DHT22;1368;49.484;11.112;2024-01-16T06:14:08;1.30;99.90
2721;DHT22;1368;49.484;11.112;2024-01-16T06:16:35;1.30;99.90
2721;DHT22;1368;49.484;11.112;2024-01-16T06:19:01;1.10;99.90
2721;DHT22;1368;49.484;11.112;2024-01-16T06:21:26;1.20;99.90
2721;DHT22;1368;49.484;11.112;2024-01-16T06:23:52;1.30;99.90
2721;DHT22;1368;49.484;11.112;2024-01-16T06:26:18;1.30;99.90
2721;DHT22;1368;49.484;11.112;2024-01-16T06:28:44;1.20;99.90
2721;DHT22;1368;49.484;11.112;2024-01-16T06:31:10;1.30;99.90
2721;DHT22;1368;49.484;11.112;2024-01-16T06:33:35;1.20;99.90
2721;DHT22;1368;49.484;11.112;2024-01-16T06:36:03;1.20;99.90
2721;DHT22;1368;49.484;11.112;2024-01-16T06:38:30;1.40;99.90
2721;DHT22;1368;49.484;11.112;2024-01-16T06:40:56;1.50;99.90
2721;DHT22;1368;49.484;11.112;2024-01-16T06:43:22;1.20;99.90
2721;DHT22;1368;49.484;11.112;2024-01-16T06:45:47;1.10;99.90
2721;DHT22;1368;49.484;11.112;2024-01-16T06:48:13;1.10;99.90
2721;DHT22;1368;49.484;11.112;2024-01-16T06:50:39;1.10;99.90
2721;DHT22;1368;49.484;11.112;2024-01-16T06:53:04;1.40;99.90
2721;DHT22;1368;49.484;11.112;2024-01-16T06:55:30;1.60;99.90
2721;DHT22;1368;49.484;11.112;2024-01-16T06:57:55;1.40;99.90
2721;DHT22;1368;49.484;11.112;2024-01-16T07:00:21;1.60;99.90
2721;DHT22;1368;49.484;11.112;2024-01-16T07:02:48;1.50;99.90
2721;DHT22;1368;49.484;11.112;2024-01-16T07:05:14;1.60;99.90
2721;DHT22;1368;49.484;11.112;2024-01-16T07:07:39;1.50;99.90
2721;DHT22;1368;49.484;11.112;2024-01-16T07:10:06;1.40;99.90
2721;DHT22;1368;49.484;11.112;2024-01-16T07:12:33;1.50;99.90
2721;DHT22;1368;49.484;11.112;2024-01-16T07:14:59;1.50;99.90
2721;DHT22;1368;49.484;11.112;2024-01-16T07:17:25;1.60;99.90
2721;DHT22;1368;49.484;11.112;2024-01-16T07:19:50;1.80;99.90
2721;DHT22;1368;49.484;11.112;2024-01-16T07:22:16;1.80;99.90
2721;DHT22;1368;49.484;11.112;2024-01-16T07:24:41;1.80;99.90
2721;DHT22;1368;49.484;11.112;2024-01-16T07:27:07;1.90;99.90
2721;DHT22;1368;49.484;11.112;2024-01-16T07:29:32;1.90;99.90
2721;DHT22;1368;49.484;11.112;2024-01-16T07:31:58;2.10;99.90
2721;DHT22;1368;49.484;11.112;2024-01-16T07:34:24;2.10;99.90
2721;DHT22;1368;49.484;11.112;2024-01-16T07:36:51;2.20;99.90
2721;DHT22;1368;49.484;11.112;2024-01-16T07:39:16;2.20;99.90
2721;DHT22;1368;49.484;11.112;2024-01-16T07:41:42;2.00;99.90
2721;DHT22;1368;49.484;11.112;2024-01-16T07:44:07;2.10;99.90
2721;DHT22;1368;49.484;11.112;2024-01-16T07:46:33;2.20;99.90
2721;DHT22;1368;49.484;11.112;2024-01-16T07:48:59;2.20;99.90
2721;DHT22;1368;49.484;11.112;2024-01-16T07:51:25;2.20;99.90
2721;DHT22;1368;49.484;11.112;2024-01-16T07:54:08;1.90;99.90
2721;DHT22;1368;49.484;11.112;2024-01-16T07:56:34;1.60;99.90
2721;DHT22;1368;49.484;11.112;2024-01-16T07:59:00;1.90;99.90
2721;DHT22;1368;49.484;11.112;2024-01-16T08:01:29;2.00;99.90
2721;DHT22;1368;49.484;11.112;2024-01-16T08:03:55;2.10;99.90
2721;DHT22;1368;49.484;11.112;2024-01-16T08:06:21;1.90;99.90
2721;DHT22;1368;49.484;11.112;2024-01-16T08:08:48;1.90;99.90
2721;DHT22;1368;49.484;11.112;2024-01-16T08:11:14;1.90;99.90
2721;DHT22;1368;49.484;11.112;2024-01-16T08:13:40;1.90;99.90
2721;DHT22;1368;49.484;11.112;2024-01-16T08:16:05;2.10;99.90
2721;DHT22;1368;49.484;11.112;2024-01-16T08:18:31;2.30;99.90
2721;DHT22;1368;49.484;11.112;2024-01-16T08:20:57;2.30;99.90
2721;DHT22;1368;49.484;11.112;2024-01-16T08:23:23;2.40;99.90
2721;DHT22;1368;49.484;11.112;2024-01-16T08:25:49;2.60;99.90
2721;DHT22;1368;49.484;11.112;2024-01-16T08:28:14;2.90;99.90
2721;DHT22;1368;49.484;11.112;2024-01-16T08:30:40;3.10;99.90
2721;DHT22;1368;49.484;11.112;2024-01-16T08:33:06;3.20;99.90
2721;DHT22;1368;49.484;11.112;2024-01-16T08:35:32;3.30;99.90
2721;DHT22;1368;49.484;11.112;2024-01-16T08:37:58;3.50;99.90
2721;DHT22;1368;49.484;11.112;2024-01-16T08:40:24;3.60;99.90
2721;DHT22;1368;49.484;11.112;2024-01-16T08:42:49;3.60;99.90
2721;DHT22;1368;49.484;11.112;2024-01-16T08:45:23;3.40;99.90
2721;DHT22;1368;49.484;11.112;2024-01-16T08:47:49;3.20;99.90
2721;DHT22;1368;49.484;11.112;2024-01-16T08:50:18;3.40;99.90
2721;DHT22;1368;49.484;11.112;2024-01-16T08:52:44;3.50;99.90
2721;DHT22;1368;49.484;11.112;2024-01-16T08:55:09;3.70;99.90
2721;DHT22;1368;49.484;11.112;2024-01-16T08:57:36;3.70;99.90
2721;DHT22;1368;49.484;11.112;2024-01-16T09:00:04;3.70;99.90
2721;DHT22;1368;49.484;11.112;2024-01-16T09:02:30;3.70;99.90
2721;DHT22;1368;49.484;11.112;2024-01-16T09:04:56;3.80;99.90
2721;DHT22;1368;49.484;11.112;2024-01-16T09:07:22;3.70;99.90
2721;DHT22;1368;49.484;11.112;2024-01-16T09:09:48;3.60;99.90
2721;DHT22;1368;49.484;11.112;2024-01-16T09:12:13;3.80;99.90
2721;DHT22;1368;49.484;11.112;2024-01-16T09:14:39;4.10;99.90
2721;DHT22;1368;49.484;11.112;2024-01-16T09:17:04;4.00;99.90
2721;DHT22;1368;49.484;11.112;2024-01-16T09:19:30;4.00;99.90
2721;DHT22;1368;49.484;11.112;2024-01-16T09:21:56;3.60;99.90
2721;DHT22;1368;49.484;11.112;2024-01-16T09:24:21;3.20;99.90
2721;DHT22;1368;49.484;11.112;2024-01-16T09:26:47;3.10;99.90
2721;DHT22;1368;49.484;11.112;2024-01-16T09:29:13;3.20;99.90
2721;DHT22;1368;49.484;11.112;2024-01-16T09:31:40;3.50;99.90
2721;DHT22;1368;49.484;11.112;2024-01-16T09:34:06;3.80;99.90
2721;DHT22;1368;49.484;11.112;2024-01-16T09:36:32;3.90;99.90
2721;DHT22;1368;49.484;11.112;2024-01-16T09:38:57;3.80;99.90
2721;DHT22;1368;49.484;11.112;2024-01-16T09:41:23;3.90;99.90
2721;DHT22;1368;49.484;11.112;2024-01-16T09:43:49;3.80;99.90
2721;DHT22;1368;49.484;11.112;2024-01-16T09:46:16;3.90;99.90
2721;DHT22;1368;49.484;11.112;2024-01-16T09:48:44;4.00;99.90
2721;DHT22;1368;49.484;11.112;2024-01-16T09:51:12;4.10;99.90
2721;DHT22;1368;49.484;11.112;2024-01-16T09:53:41;4.10;99.90
2721;DHT22;1368;49.484;11.112;2024-01-16T09:56:15;4.10;99.90
2721;DHT22;1368;49.484;11.112;2024-01-16T09:58:43;3.90;99.90
2721;DHT22;1368;49.484;11.112;2024-01-16T10:01:11;3.90;99.90
2721;DHT22;1368;49.484;11.112;2024-01-16T10:03:37;3.90;99.90
2721;DHT22;1368;49.484;11.112;2024-01-16T10:06:07;3.80;99.90
2721;DHT22;1368;49.484;11.112;2024-01-16T10:08:33;3.60;99.90
2721;DHT22;1368;49.484;11.112;2024-01-16T10:10:59;3.40;99.90
2721;DHT22;1368;49.484;11.112;2024-01-16T10:13:26;3.10;99.90
2721;DHT22;1368;49.484;11.112;2024-01-16T10:15:52;3.30;99.90
2721;DHT22;1368;49.484;11.112;2024-01-16T10:18:28;3.50;99.90
2721;DHT22;1368;49.484;11.112;2024-01-16T10:20:55;3.60;99.90
2721;DHT22;1368;49.484;11.112;2024-01-16T10:23:28;3.90;99.90
2721;DHT22;1368;49.484;11.112;2024-01-16T10:26:10;4.00;99.90
2721;DHT22;1368;49.484;11.112;2024-01-16T10:28:37;4.00;99.90
2721;DHT22;1368;49.484;11.112;2024-01-16T10:31:07;3.90;99.90
2721;DHT22;1368;49.484;11.112;2024-01-16T10:33:33;4.00;99.90
2721;DHT22;1368;49.484;11.112;2024-01-16T10:36:17;4.00;99.90
2721;DHT22;1368;49.484;11.112;2024-01-16T10:38:45;3.90;99.90
2721;DHT22;1368;49.484;11.112;2024-01-16T10:41:16;4.10;99.90
2721;DHT22;1368;49.484;11.112;2024-01-16T10:43:43;4.10;99.90
2721;DHT22;1368;49.484;11.112;2024-01-16T10:46:16;4.20;99.90
2721;DHT22;1368;49.484;11.112;2024-01-16T10:48:43;4.20;99.90
2721;DHT22;1368;49.484;11.112;2024-01-16T10:51:11;3.50;99.90
2721;DHT22;1368;49.484;11.112;2024-01-16T10:53:42;3.40;99.90
2721;DHT22;1368;49.484;11.112;2024-01-16T10:56:10;3.50;99.90
2721;DHT22;1368;49.484;11.112;2024-01-16T10:58:42;3.70;99.90
2721;DHT22;1368;49.484;11.112;2024-01-16T11:01:11;4.00;99.90
2721;DHT22;1368;49.484;11.112;2024-01-16T11:03:46;4.30;99.90
2721;DHT22;1368;49.484;11.112;2024-01-16T11:06:15;4.60;99.90
2721;DHT22;1368;49.484;11.112;2024-01-16T11:08:41;4.80;99.90
2721;DHT22;1368;49.484;11.112;2024-01-16T11:11:08;5.00;99.90
2721;DHT22;1368;49.484;11.112;2024-01-16T11:13:36;5.00;99.90
2721;DHT22;1368;49.484;11.112;2024-01-16T11:16:05;4.80;99.90
2721;DHT22;1368;49.484;11.112;2024-01-16T11:18:33;4.60;99.90
2721;DHT22;1368;49.484;11.112;2024-01-16T11:21:00;4.50;99.90
2721;DHT22;1368;49.484;11.112;2024-01-16T11:23:26;4.60;99.90
2721;DHT22;1368;49.484;11.112;2024-01-16T11:25:52;4.70;99.90
2721;DHT22;1368;49.484;11.112;2024-01-16T11:28:18;4.90;99.90
2721;DHT22;1368;49.484;11.112;2024-01-16T11:30:45;4.90;99.90
2721;DHT22;1368;49.484;11.112;2024-01-16T11:35:59;4.90;99.90
2721;DHT22;1368;49.484;11.112;2024-01-16T11:38:25;5.00;99.90
2721;DHT22;1368;49.484;11.112;2024-01-16T11:40:54;5.00;99.90
2721;DHT22;1368;49.484;11.112;2024-01-16T11:46:06;4.90;99.90
2721;DHT22;1368;49.484;11.112;2024-01-16T11:48:32;5.00;99.90
2721;DHT22;1368;49.484;11.112;2024-01-16T11:50:58;4.90;99.90
2721;DHT22;1368;49.484;11.112;2024-01-16T11:56:32;5.00;99.90
2721;DHT22;1368;49.484;11.112;2024-01-16T12:01:38;4.40;99.90
2721;DHT22;1368;49.484;11.112;2024-01-16T12:04:07;4.60;99.90
2721;DHT22;1368;49.484;11.112;2024-01-16T12:06:35;4.30;99.90
2721;DHT22;1368;49.484;11.112;2024-01-16T12:09:14;4.30;99.90
2721;DHT22;1368;49.484;11.112;2024-01-16T12:11:41;4.50;99.90
2721;DHT22;1368;49.484;11.112;2024-01-16T12:14:12;5.00;99.90
2721;DHT22;1368;49.484;11.112;2024-01-16T12:16:37;5.30;99.50
2721;DHT22;1368;49.484;11.112;2024-01-16T12:19:10;5.60;99.00
2721;DHT22;1368;49.484;11.112;2024-01-16T12:24:05;5.00;99.10
2721;DHT22;1368;49.484;11.112;2024-01-16T12:26:31;5.00;98.80
2721;DHT22;1368;49.484;11.112;2024-01-16T12:28:57;5.20;98.80
2721;DHT22;1368;49.484;11.112;2024-01-16T12:31:24;5.40;98.90
2721;DHT22;1368;49.484;11.112;2024-01-16T12:33:50;5.60;98.40
2721;DHT22;1368;49.484;11.112;2024-01-16T12:36:16;5.70;98.40
2721;DHT22;1368;49.484;11.112;2024-01-16T12:38:42;5.60;98.20
2721;DHT22;1368;49.484;11.112;2024-01-16T12:41:09;5.80;98.00
2721;DHT22;1368;49.484;11.112;2024-01-16T12:43:36;5.90;97.50
2721;DHT22;1368;49.484;11.112;2024-01-16T12:46:04;5.50;97.10
2721;DHT22;1368;49.484;11.112;2024-01-16T12:48:32;5.40;97.50
2721;DHT22;1368;49.484;11.112;2024-01-16T12:51:03;5.50;97.80
2721;DHT22;1368;49.484;11.112;2024-01-16T12:53:30;5.80;97.70
2721;DHT22;1368;49.484;11.112;2024-01-16T12:56:01;5.90;97.20
2721;DHT22;1368;49.484;11.112;2024-01-16T12:58:32;6.00;97.20
2721;DHT22;1368;49.484;11.112;2024-01-16T13:01:23;6.90;97.80
2721;DHT22;1368;49.484;11.112;2024-01-16T13:03:50;6.20;96.60
2721;DHT22;1368;49.484;11.112;2024-01-16T13:06:20;6.20;97.20
2721;DHT22;1368;49.484;11.112;2024-01-16T13:08:50;6.80;97.50
2721;DHT22;1368;49.484;11.112;2024-01-16T13:11:16;6.00;95.90
2721;DHT22;1368;49.484;11.112;2024-01-16T13:13:46;5.50;96.60
2721;DHT22;1368;49.484;11.112;2024-01-16T13:16:17;5.40;97.80
2721;DHT22;1368;49.484;11.112;2024-01-16T13:18:42;5.40;97.40
2721;DHT22;1368;49.484;11.112;2024-01-16T13:21:09;5.40;97.30
2721;DHT22;1368;49.484;11.112;2024-01-16T13:23:35;5.40;96.70
2721;DHT22;1368;49.484;11.112;2024-01-16T13:26:00;5.20;97.10
2721;DHT22;1368;49.484;11.112;2024-01-16T13:28:28;5.40;97.40
2721;DHT22;1368;49.484;11.112;2024-01-16T13:30:55;5.50;97.20
2721;DHT22;1368;49.484;11.112;2024-01-16T13:33:25;5.40;96.90
2721;DHT22;1368;49.484;11.112;2024-01-16T13:35:54;5.20;97.20
2721;DHT22;1368;49.484;11.112;2024-01-16T13:38:20;5.30;97.30
2721;DHT22;1368;49.484;11.112;2024-01-16T13:40:46;5.70;96.80
2721;DHT22;1368;49.484;11.112;2024-01-16T13:43:12;5.40;97.00
2721;DHT22;1368;49.484;11.112;2024-01-16T13:45:38;5.50;96.50
2721;DHT22;1368;49.484;11.112;2024-01-16T13:48:05;5.60;96.40
2721;DHT22;1368;49.484;11.112;2024-01-16T13:50:32;5.70;96.90
2721;DHT22;1368;49.484;11.112;2024-01-16T13:52:58;5.80;96.10
2721;DHT22;1368;49.484;11.112;2024-01-16T13:55:24;5.80;95.90
2721;DHT22;1368;49.484;11.112;2024-01-16T13:57:50;5.80;95.80
2721;DHT22;1368;49.484;11.112;2024-01-16T14:00:15;5.60;96.20
2721;DHT22;1368;49.484;11.112;2024-01-16T14:02:43;5.50;95.90
2721;DHT22;1368;49.484;11.112;2024-01-16T14:05:10;5.60;94.90
2721;DHT22;1368;49.484;11.112;2024-01-16T14:07:37;5.30;95.10
2721;DHT22;1368;49.484;11.112;2024-01-16T14:10:08;4.80;96.40
2721;DHT22;1368;49.484;11.112;2024-01-16T14:12:35;4.90;97.20
2721;DHT22;1368;49.484;11.112;2024-01-16T14:15:01;4.90;97.30
2721;DHT22;1368;49.484;11.112;2024-01-16T14:17:30;4.80;96.40
2721;DHT22;1368;49.484;11.112;2024-01-16T14:19:55;4.70;96.60
2721;DHT22;1368;49.484;11.112;2024-01-16T14:22:22;4.60;96.50
2721;DHT22;1368;49.484;11.112;2024-01-16T14:24:48;4.40;97.20
2721;DHT22;1368;49.484;11.112;2024-01-16T14:27:16;4.30;97.50
2721;DHT22;1368;49.484;11.112;2024-01-16T14:29:41;4.40;98.00
2721;DHT22;1368;49.484;11.112;2024-01-16T14:32:07;4.40;97.70
2721;DHT22;1368;49.484;11.112;2024-01-16T14:34:33;4.40;97.80
2721;DHT22;1368;49.484;11.112;2024-01-16T14:36:59;4.50;97.50
2721;DHT22;1368;49.484;11.112;2024-01-16T14:39:24;4.50;97.80
2721;DHT22;1368;49.484;11.112;2024-01-16T14:41:50;4.20;97.50
2721;DHT22;1368;49.484;11.112;2024-01-16T14:44:17;4.40;97.80
2721;DHT22;1368;49.484;11.112;2024-01-16T14:46:43;4.40;97.70
2721;DHT22;1368;49.484;11.112;2024-01-16T14:49:09;4.40;97.70
2721;DHT22;1368;49.484;11.112;2024-01-16T14:51:35;4.40;97.90
2721;DHT22;1368;49.484;11.112;2024-01-16T14:54:01;4.20;97.50
2721;DHT22;1368;49.484;11.112;2024-01-16T14:56:30;4.10;98.10
2721;DHT22;1368;49.484;11.112;2024-01-16T14:58:56;4.10;98.40
2721;DHT22;1368;49.484;11.112;2024-01-16T15:01:22;4.20;97.80
2721;DHT22;1368;49.484;11.112;2024-01-16T15:03:48;4.20;98.70
2721;DHT22;1368;49.484;11.112;2024-01-16T15:06:14;4.30;98.30
2721;DHT22;1368;49.484;11.112;2024-01-16T15:08:40;4.30;97.80
2721;DHT22;1368;49.484;11.112;2024-01-16T15:11:06;4.20;98.10
2721;DHT22;1368;49.484;11.112;2024-01-16T15:13:32;4.20;98.40
2721;DHT22;1368;49.484;11.112;2024-01-16T15:15:59;4.20;98.80
2721;DHT22;1368;49.484;11.112;2024-01-16T15:18:24;4.20;98.50
2721;DHT22;1368;49.484;11.112;2024-01-16T15:20:50;4.20;98.20
2721;DHT22;1368;49.484;11.112;2024-01-16T15:23:16;4.00;97.80
2721;DHT22;1368;49.484;11.112;2024-01-16T15:25:42;3.70;98.60
2721;DHT22;1368;49.484;11.112;2024-01-16T15:28:07;3.60;99.10
2721;DHT22;1368;49.484;11.112;2024-01-16T15:30:34;3.60;98.90
2721;DHT22;1368;49.484;11.112;2024-01-16T15:33:02;3.60;99.00
2721;DHT22;1368;49.484;11.112;2024-01-16T15:35:32;3.40;98.80
2721;DHT22;1368;49.484;11.112;2024-01-16T15:37:58;3.40;98.90
2721;DHT22;1368;49.484;11.112;2024-01-16T15:40:23;3.40;99.20
2721;DHT22;1368;49.484;11.112;2024-01-16T15:42:49;3.50;99.20
2721;DHT22;1368;49.484;11.112;2024-01-16T15:45:15;3.50;98.90
2721;DHT22;1368;49.484;11.112;2024-01-16T15:47:40;3.40;98.40
2721;DHT22;1368;49.484;11.112;2024-01-16T15:50:07;3.10;98.90
2721;DHT22;1368;49.484;11.112;2024-01-16T15:52:33;3.00;99.60
2721;DHT22;1368;49.484;11.112;2024-01-16T15:54:59;3.00;99.60
2721;DHT22;1368;49.484;11.112;2024-01-16T15:57:25;2.80;99.80
2721;DHT22;1368;49.484;11.112;2024-01-16T15:59:51;2.90;99.50
2721;DHT22;1368;49.484;11.112;2024-01-16T16:02:17;2.80;99.40
2721;DHT22;1368;49.484;11.112;2024-01-16T16:04:42;2.90;99.70
2721;DHT22;1368;49.484;11.112;2024-01-16T16:07:08;2.90;99.90
2721;DHT22;1368;49.484;11.112;2024-01-16T16:09:33;2.90;99.90
2721;DHT22;1368;49.484;11.112;2024-01-16T16:12:01;2.80;99.60
2721;DHT22;1368;49.484;11.112;2024-01-16T16:14:28;2.80;99.90